Kezdőlap
METAR-TAF:

METAR-TAF

Repülőterek :

Joensuu, Finnország

földrajzi szélesség: 62-40N, földrajzi hosszúság: 029-38E, magasság: 119 m

Jelenlegi meteorológiai megfigyelések

A jelentés 39 perccel ezelõtt készült, 08:20 UTC
Északi szél 6 kt, északnyugati és kelet-északkeleti között változik
Hőmérséklet 15°C
Páratartalom 72%
Légköri nyomás 1018 hPa
Látótávolság 10 km, vagy több
Szakadozott felhőzet 2100 lábon

METAR: EFJO 130820Z AUTO 01006KT 320V070 9999 BKN021 15/10 Q1018

Idő: 11:59 (08:59 UTC)


TAF: hiányzik

Meteorológiai megfigyelések és előrejelzések több, mint 4000 repülőtéren (METAR és TAF jelentéseket).

A térképen piros és sárga pontok jelzik az elérhető meteorológiai állomásokat.

Mozgassa az egeret a pont fölött, hogy megjelenjen az állomás neve.

Azután kattintson az időjárási megfigyelések és előrejelzések megtekintéséhez.

A térkép megváltoztatása: kattintson a fekete keresztel jelölt zöld gombra ráközelítéshez, a vonallal jelölt zöld gombra távolításhoz, vagy a zöld nyilakra a szomszédos térképek eléréséhez.


METAR-TAF: